Fortunia — V2OG3 — position and weather

sailwx.info

Track history (hours):
 
Tides and Currents Weather Stations Pressure Air Temp Water Temp Dewpoint Dewpoint Depression Visibility Wind Speed Wind Dir Waves Ship Positions

Fortunia

Last reported at 2016-Jun-25 18:27 UTC. Time now 2016-Jun-26 06:37 UTC.
Position N 36°46' E 003°04'.

Length 121 m; draft 7.4 m.

Type: Ship (hazmat cat A). MMSI: 304010638.

Date/timePositionNaut miles runAvg speedWind from/ knotsBaromVisibWave heightAir tempDewpointWater temp
2016-Jun-25 18:27N 36°46' E 003°04'0 0.0
2016-Jun-25 15:32N 36°46' E 003°04'0 0.0
2016-Jun-25 14:31N 36°46' E 003°04'0 0.0
2016-Jun-25 13:31N 36°46' E 003°04'0 0.0
2016-Jun-25 12:34N 36°46' E 003°04'0 0.0
2016-Jun-25 11:33N 36°46' E 003°04'0 0.0
2016-Jun-25 10:33N 36°46' E 003°04'0 0.0
2016-Jun-25 09:33N 36°46' E 003°04'2 1.8
2016-Jun-25 08:32N 36°47' E 003°06'1 0.7
2016-Jun-25 07:32N 36°47' E 003°06'0 0.0
2016-Jun-25 06:31N 36°47' E 003°07'0 0.0
2016-Jun-25 05:25N 36°47' E 003°07'1 0.3
2016-Jun-25 03:31N 36°48' E 003°07'11 8.5
2016-Jun-25 02:16N 36°56' E 002°58'6 8.9
2016-Jun-25 01:33N 36°58' E 002°51'10 9.9
2016-Jun-25 00:33N 36°57' E 002°39'1010.4
2016-Jun-24 23:33N 36°56' E 002°26'1010.4
2016-Jun-24 22:33N 36°55' E 002°13'1110.5
2016-Jun-24 21:33N 36°54' E 001°60'1110.7
2016-Jun-24 20:33N 36°51' E 001°47'1110.5
2016-Jun-24 19:33N 36°49' E 001°34'1110.6
2016-Jun-24 18:33N 36°48' E 001°21'1010.4
2016-Jun-24 17:33N 36°47' E 001°08'1110.2
2016-Jun-24 16:31N 36°45' E 000°55'1010.0
2016-Jun-24 15:33N 36°43' E 000°43'1010.0
2016-Jun-24 14:33N 36°42' E 000°30'1010.1
2016-Jun-24 13:33N 36°40' E 000°18'1010.3
2016-Jun-24 12:33N 36°38' E 000°05'1010.5
2016-Jun-24 11:33N 36°37' W 000°08'1110.6
2016-Jun-24 10:33N 36°36' W 000°21'1110.6
2016-Jun-24 09:33N 36°34' W 000°34'1010.3
2016-Jun-24 08:33N 36°32' W 000°46'1110.6
2016-Jun-24 07:32N 36°31' W 000°60'1412.3
2016-Jun-24 06:22N 36°29' W 001°17'19111.2
2016-Jun-23 13:19N 36°06' W 005°12'7 9.6
2016-Jun-23 12:33N 36°05' W 005°21'5 4.2
2016-Jun-23 11:27N 36°08' W 005°25'0 0.0
2016-Jun-23 10:30N 36°08' W 005°25'0 0.0
2016-Jun-23 08:21N 36°08' W 005°25'0 0.0
2016-Jun-23 07:30N 36°08' W 005°25'0 0.0
2016-Jun-23 05:32N 36°08' W 005°25'0 0.0
2016-Jun-23 04:31N 36°08' W 005°25'0 0.0
2016-Jun-23 03:28N 36°08' W 005°25'0 0.0
2016-Jun-23 02:33N 36°08' W 005°25'0 0.0
2016-Jun-23 01:33N 36°08' W 005°25'0 0.0
2016-Jun-23 00:23N 36°08' W 005°25'0 0.0
2016-Jun-22 23:32N 36°08' W 005°25'5 4.9
2016-Jun-22 22:33N 36°04' W 005°21'19310.7
2016-Jun-22 04:31N 35°58' W 001°23'1211.4
2016-Jun-22 03:29N 35°55' W 001°09'1211.1
2016-Jun-22 02:27N 35°54' W 000°55'18 4.4
2016-Jun-21 22:25N 35°43' W 000°38'0 0.0
2016-Jun-21 18:30N 35°43' W 000°38'0 0.0
2016-Jun-21 17:29N 35°43' W 000°38'0 0.0
2016-Jun-21 16:29N 35°43' W 000°38'0 0.0
2016-Jun-21 15:11N 35°43' W 000°38'0 0.0
2016-Jun-21 14:23N 35°43' W 000°38'0 0.0
2016-Jun-21 13:28N 35°43' W 000°38'0 0.0
2016-Jun-21 04:18N 35°43' W 000°38'0 0.0
2016-Jun-21 02:23N 35°43' W 000°38'0 0.0
2016-Jun-20 23:16N 35°43' W 000°38'0 0.0
2016-Jun-20 22:18N 35°43' W 000°38'0 0.0
2016-Jun-20 18:13N 35°43' W 000°38'0 0.0
2016-Jun-20 17:31N 35°43' W 000°38'0 0.0
2016-Jun-20 15:31N 35°43' W 000°38'0 0.0
2016-Jun-20 14:24N 35°43' W 000°38'0 0.0
2016-Jun-20 03:26N 35°43' W 000°38'0 0.0
2016-Jun-19 17:33N 35°43' W 000°38'0 0.0
2016-Jun-19 16:33N 35°43' W 000°38'2 0.1
2016-Jun-18 07:30N 35°44' W 000°37'0 0.0
2016-Jun-18 06:21N 35°44' W 000°37'0 0.1
2016-Jun-18 05:23N 35°44' W 000°37'0 0.0
2016-Jun-18 04:22N 35°44' W 000°37'0 0.0
2016-Jun-18 03:28N 35°44' W 000°37'0 0.0
2016-Jun-18 02:16N 35°44' W 000°37'0 0.0
2016-Jun-18 01:15N 35°44' W 000°37'0 0.0
2016-Jun-17 22:32N 35°44' W 000°37'0 0.0
2016-Jun-17 18:06N 35°44' W 000°37'0 0.0
2016-Jun-17 17:30N 35°44' W 000°37'0 0.0
2016-Jun-17 16:30N 35°44' W 000°37'  
Track history (hours):
 
Tides and Currents Weather Stations Pressure Air Temp Water Temp Dewpoint Dewpoint Depression Visibility Wind Speed Wind Dir Waves Ship Positions

Fortunia

Last reported at 2016-Jun-25 18:27 UTC. Time now 2016-Jun-26 06:37 UTC.
Position N 36°46' E 003°04'.

Length 121 m; draft 7.4 m.

Type: Ship (hazmat cat A). MMSI: 304010638.

Date/timePositionNaut miles runAvg speedWind from/ knotsBaromVisibWave heightAir tempDewpointWater temp
2016-Jun-25 18:27N 36°46' E 003°04'0 0.0
2016-Jun-25 15:32N 36°46' E 003°04'0 0.0
2016-Jun-25 14:31N 36°46' E 003°04'0 0.0
2016-Jun-25 13:31N 36°46' E 003°04'0 0.0
2016-Jun-25 12:34N 36°46' E 003°04'0 0.0
2016-Jun-25 11:33N 36°46' E 003°04'0 0.0
2016-Jun-25 10:33N 36°46' E 003°04'0 0.0
2016-Jun-25 09:33N 36°46' E 003°04'2 1.8
2016-Jun-25 08:32N 36°47' E 003°06'1 0.7
2016-Jun-25 07:32N 36°47' E 003°06'0 0.0
2016-Jun-25 06:31N 36°47' E 003°07'0 0.0
2016-Jun-25 05:25N 36°47' E 003°07'1 0.3
2016-Jun-25 03:31N 36°48' E 003°07'11 8.5
2016-Jun-25 02:16N 36°56' E 002°58'6 8.9
2016-Jun-25 01:33N 36°58' E 002°51'10 9.9
2016-Jun-25 00:33N 36°57' E 002°39'1010.4
2016-Jun-24 23:33N 36°56' E 002°26'1010.4
2016-Jun-24 22:33N 36°55' E 002°13'1110.5
2016-Jun-24 21:33N 36°54' E 001°60'1110.7
2016-Jun-24 20:33N 36°51' E 001°47'1110.5
2016-Jun-24 19:33N 36°49' E 001°34'1110.6
2016-Jun-24 18:33N 36°48' E 001°21'1010.4
2016-Jun-24 17:33N 36°47' E 001°08'1110.2
2016-Jun-24 16:31N 36°45' E 000°55'1010.0
2016-Jun-24 15:33N 36°43' E 000°43'1010.0
2016-Jun-24 14:33N 36°42' E 000°30'1010.1
2016-Jun-24 13:33N 36°40' E 000°18'1010.3
2016-Jun-24 12:33N 36°38' E 000°05'1010.5
2016-Jun-24 11:33N 36°37' W 000°08'1110.6
2016-Jun-24 10:33N 36°36' W 000°21'1110.6
2016-Jun-24 09:33N 36°34' W 000°34'1010.3
2016-Jun-24 08:33N 36°32' W 000°46'1110.6
2016-Jun-24 07:32N 36°31' W 000°60'1412.3
2016-Jun-24 06:22N 36°29' W 001°17'19111.2
2016-Jun-23 13:19N 36°06' W 005°12'7 9.6
2016-Jun-23 12:33N 36°05' W 005°21'5 4.2
2016-Jun-23 11:27N 36°08' W 005°25'0 0.0
2016-Jun-23 10:30N 36°08' W 005°25'0 0.0
2016-Jun-23 08:21N 36°08' W 005°25'0 0.0
2016-Jun-23 07:30N 36°08' W 005°25'0 0.0
2016-Jun-23 05:32N 36°08' W 005°25'0 0.0
2016-Jun-23 04:31N 36°08' W 005°25'0 0.0
2016-Jun-23 03:28N 36°08' W 005°25'0 0.0
2016-Jun-23 02:33N 36°08' W 005°25'0 0.0
2016-Jun-23 01:33N 36°08' W 005°25'0 0.0
2016-Jun-23 00:23N 36°08' W 005°25'0 0.0
2016-Jun-22 23:32N 36°08' W 005°25'5 4.9
2016-Jun-22 22:33N 36°04' W 005°21'19310.7
2016-Jun-22 04:31N 35°58' W 001°23'1211.4
2016-Jun-22 03:29N 35°55' W 001°09'1211.1
2016-Jun-22 02:27N 35°54' W 000°55'18 4.4
2016-Jun-21 22:25N 35°43' W 000°38'0 0.0
2016-Jun-21 18:30N 35°43' W 000°38'0 0.0
2016-Jun-21 17:29N 35°43' W 000°38'0 0.0
2016-Jun-21 16:29N 35°43' W 000°38'0 0.0
2016-Jun-21 15:11N 35°43' W 000°38'0 0.0
2016-Jun-21 14:23N 35°43' W 000°38'0 0.0
2016-Jun-21 13:28N 35°43' W 000°38'0 0.0
2016-Jun-21 04:18N 35°43' W 000°38'0 0.0
2016-Jun-21 02:23N 35°43' W 000°38'0 0.0
2016-Jun-20 23:16N 35°43' W 000°38'0 0.0
2016-Jun-20 22:18N 35°43' W 000°38'0 0.0
2016-Jun-20 18:13N 35°43' W 000°38'0 0.0
2016-Jun-20 17:31N 35°43' W 000°38'0 0.0
2016-Jun-20 15:31N 35°43' W 000°38'0 0.0
2016-Jun-20 14:24N 35°43' W 000°38'0 0.0
2016-Jun-20 03:26N 35°43' W 000°38'0 0.0
2016-Jun-19 17:33N 35°43' W 000°38'0 0.0
2016-Jun-19 16:33N 35°43' W 000°38'2 0.1
2016-Jun-18 07:30N 35°44' W 000°37'0 0.0
2016-Jun-18 06:21N 35°44' W 000°37'0 0.1
2016-Jun-18 05:23N 35°44' W 000°37'0 0.0
2016-Jun-18 04:22N 35°44' W 000°37'0 0.0
2016-Jun-18 03:28N 35°44' W 000°37'0 0.0
2016-Jun-18 02:16N 35°44' W 000°37'0 0.0
2016-Jun-18 01:15N 35°44' W 000°37'0 0.0
2016-Jun-17 22:32N 35°44' W 000°37'0 0.0
2016-Jun-17 18:06N 35°44' W 000°37'0 0.0
2016-Jun-17 17:30N 35°44' W 000°37'0 0.0
2016-Jun-17 16:30N 35°44' W 000°37'  

Dump ship's entire track history